KEBA

Elbert County-Patz Field Airport

Elberton, Georgia, USA
METAR KEBA 220215Z AUTO 00000KT 10SM CLR 25/20 A3015 RMK AO2 T02530202
Observed Flight Rules
May-22 @ 02:15 UTC (21 minutes ago) Visual Flight Rules
Visibility Clouds
10 miles
  • Clear skies
Temperatures Readings
Current 25°C / 77°F
Dewpoint 20°C / 68°F
Humidity 74%
Altimeter 30.15" Hg
Pressure 1021 hPa
Elevation 184
METAR KEBA 220215Z AUTO 00000KT 10SM CLR 25/20 A3015 RMK AO2 T02530202
Observed Flight Rules
May-22 @ 02:15 UTC
(21 minutes ago)
VFR
Clouds
  • Clear skies
Temperature Dewpoint
25°C / 77°F 20°C / 68°F
Humidity Altimeter Pressure
74% 30.15" Hg 1021 hPa